British Ruby — 2AKI2 — position and weather

sailwx.info

Track history (hours):
 
Tides and Currents Weather Stations Pressure Air Temp Water Temp Dewpoint Dewpoint Depression Visibility Wind Speed Wind Dir Waves Ship Positions

British Ruby

Last reported at 2014-Nov-22 08:33 UTC. Time now 2014-Nov-23 08:42 UTC.
Position N 39°38' W 000°13'.

Length 288 m; draft 10.3 m.

Type: Ship (hazmat cat C). MMSI: 235060453.

Date/timePositionNaut miles runAvg speedWind from/ knotsBaromVisibWave heightAir tempDewpointWater temp
2014-Nov-22 08:33N 39°38' W 000°13'2 2.4
2014-Nov-22 07:32N 39°36' W 000°11'  
2014-Nov-18 21:31N 39°35' W 000°09'0 0.0
2014-Nov-18 20:07N 39°35' W 000°09'0 0.0
2014-Nov-18 19:31N 39°35' W 000°09'0 0.0
2014-Nov-18 18:31N 39°36' W 000°09'0 0.0
2014-Nov-18 17:31N 39°36' W 000°09'0 0.0
2014-Nov-18 14:31N 39°35' W 000°09'  
2014-Nov-14 12:33N 39°20' E 001°06'1616.3
2014-Nov-14 11:33N 39°16' E 001°26'1616.1
2014-Nov-14 10:33N 39°13' E 001°47'1615.9
2014-Nov-14 09:33N 39°10' E 002°07'1615.7
2014-Nov-14 08:33N 39°05' E 002°26'1615.9
2014-Nov-14 07:33N 39°02' E 002°46'1616.2
2014-Nov-14 06:33N 38°58' E 003°07'1616.2
2014-Nov-14 05:33N 38°54' E 003°27'1616.2
2014-Nov-14 04:33N 38°51' E 003°47'  
Track history (hours):
 
Tides and Currents Weather Stations Pressure Air Temp Water Temp Dewpoint Dewpoint Depression Visibility Wind Speed Wind Dir Waves Ship Positions

British Ruby

Last reported at 2014-Nov-22 08:33 UTC. Time now 2014-Nov-23 08:42 UTC.
Position N 39°38' W 000°13'.

Length 288 m; draft 10.3 m.

Type: Ship (hazmat cat C). MMSI: 235060453.

Date/timePositionNaut miles runAvg speedWind from/ knotsBaromVisibWave heightAir tempDewpointWater temp
2014-Nov-22 08:33N 39°38' W 000°13'2 2.4
2014-Nov-22 07:32N 39°36' W 000°11'  
2014-Nov-18 21:31N 39°35' W 000°09'0 0.0
2014-Nov-18 20:07N 39°35' W 000°09'0 0.0
2014-Nov-18 19:31N 39°35' W 000°09'0 0.0
2014-Nov-18 18:31N 39°36' W 000°09'0 0.0
2014-Nov-18 17:31N 39°36' W 000°09'0 0.0
2014-Nov-18 14:31N 39°35' W 000°09'  
2014-Nov-14 12:33N 39°20' E 001°06'1616.3
2014-Nov-14 11:33N 39°16' E 001°26'1616.1
2014-Nov-14 10:33N 39°13' E 001°47'1615.9
2014-Nov-14 09:33N 39°10' E 002°07'1615.7
2014-Nov-14 08:33N 39°05' E 002°26'1615.9
2014-Nov-14 07:33N 39°02' E 002°46'1616.2
2014-Nov-14 06:33N 38°58' E 003°07'1616.2
2014-Nov-14 05:33N 38°54' E 003°27'1616.2
2014-Nov-14 04:33N 38°51' E 003°47'  

Dump ship's entire track history